sensor_id;sensor_type;location;lat;lon;timestamp;temperature;humidity
33382;DHT22;21342;48.786;9.166;2022-08-04T00:01:34;25.40;81.60
33382;DHT22;21342;48.786;9.166;2022-08-04T00:04:08;25.30;81.60
33382;DHT22;21342;48.786;9.166;2022-08-04T00:06:51;25.30;82.50
33382;DHT22;21342;48.786;9.166;2022-08-04T00:09:26;25.30;82.80
33382;DHT22;21342;48.786;9.166;2022-08-04T00:11:57;25.10;83.50
33382;DHT22;21342;48.786;9.166;2022-08-04T00:14:29;25.00;84.80
33382;DHT22;21342;48.786;9.166;2022-08-04T00:17:03;25.00;85.10
33382;DHT22;21342;48.786;9.166;2022-08-04T00:19:34;24.90;85.60
33382;DHT22;21342;48.786;9.166;2022-08-04T00:22:03;25.00;85.70
33382;DHT22;21342;48.786;9.166;2022-08-04T00:24:33;25.00;85.70
33382;DHT22;21342;48.786;9.166;2022-08-04T00:27:01;25.00;85.90
33382;DHT22;21342;48.786;9.166;2022-08-04T00:29:30;25.10;86.30
33382;DHT22;21342;48.786;9.166;2022-08-04T00:31:58;25.00;86.90
33382;DHT22;21342;48.786;9.166;2022-08-04T00:34:31;24.90;87.40
33382;DHT22;21342;48.786;9.166;2022-08-04T00:36:59;24.90;87.80
33382;DHT22;21342;48.786;9.166;2022-08-04T00:39:27;24.80;89.10
33382;DHT22;21342;48.786;9.166;2022-08-04T00:42:13;24.80;88.70
33382;DHT22;21342;48.786;9.166;2022-08-04T00:44:56;24.80;89.00
33382;DHT22;21342;48.786;9.166;2022-08-04T00:47:38;24.80;89.10
33382;DHT22;21342;48.786;9.166;2022-08-04T00:50:16;24.80;89.40
33382;DHT22;21342;48.786;9.166;2022-08-04T00:52:55;24.70;90.30
33382;DHT22;21342;48.786;9.166;2022-08-04T00:55:48;24.50;90.60
33382;DHT22;21342;48.786;9.166;2022-08-04T00:58:28;24.40;91.10
33382;DHT22;21342;48.786;9.166;2022-08-04T01:01:01;24.40;91.50
33382;DHT22;21342;48.786;9.166;2022-08-04T01:03:42;24.20;91.50
33382;DHT22;21342;48.786;9.166;2022-08-04T01:06:21;24.20;91.90
33382;DHT22;21342;48.786;9.166;2022-08-04T01:09:02;24.30;92.10
33382;DHT22;21342;48.786;9.166;2022-08-04T01:14:20;24.50;91.50
33382;DHT22;21342;48.786;9.166;2022-08-04T01:16:52;24.50;91.60
33382;DHT22;21342;48.786;9.166;2022-08-04T01:22:28;24.10;92.20
33382;DHT22;21342;48.786;9.166;2022-08-04T01:25:21;24.20;92.40
33382;DHT22;21342;48.786;9.166;2022-08-04T01:28:12;24.10;92.30
33382;DHT22;21342;48.786;9.166;2022-08-04T01:30:44;23.90;92.70
33382;DHT22;21342;48.786;9.166;2022-08-04T01:33:14;23.80;92.90
33382;DHT22;21342;48.786;9.166;2022-08-04T01:35:47;23.90;93.10
33382;DHT22;21342;48.786;9.166;2022-08-04T01:38:21;23.80;93.30
33382;DHT22;21342;48.786;9.166;2022-08-04T01:40:52;23.80;93.60
33382;DHT22;21342;48.786;9.166;2022-08-04T01:43:20;23.80;93.40
33382;DHT22;21342;48.786;9.166;2022-08-04T01:45:50;23.90;93.70
33382;DHT22;21342;48.786;9.166;2022-08-04T01:48:23;24.00;93.90
33382;DHT22;21342;48.786;9.166;2022-08-04T01:50:51;24.00;93.80
33382;DHT22;21342;48.786;9.166;2022-08-04T01:53:19;24.10;93.60
33382;DHT22;21342;48.786;9.166;2022-08-04T01:55:47;23.90;93.80
33382;DHT22;21342;48.786;9.166;2022-08-04T01:58:17;23.80;94.20
33382;DHT22;21342;48.786;9.166;2022-08-04T02:00:54;23.80;94.70
33382;DHT22;21342;48.786;9.166;2022-08-04T02:03:21;23.80;94.40
33382;DHT22;21342;48.786;9.166;2022-08-04T02:05:49;23.80;94.50
33382;DHT22;21342;48.786;9.166;2022-08-04T02:08:25;23.80;94.60
33382;DHT22;21342;48.786;9.166;2022-08-04T02:11:02;23.60;94.80
33382;DHT22;21342;48.786;9.166;2022-08-04T02:13:35;23.70;95.10
33382;DHT22;21342;48.786;9.166;2022-08-04T02:16:11;23.80;95.30
33382;DHT22;21342;48.786;9.166;2022-08-04T02:18:48;23.80;95.30
33382;DHT22;21342;48.786;9.166;2022-08-04T02:21:19;23.80;95.30
33382;DHT22;21342;48.786;9.166;2022-08-04T02:23:52;23.70;95.50
33382;DHT22;21342;48.786;9.166;2022-08-04T02:26:20;23.50;95.80
33382;DHT22;21342;48.786;9.166;2022-08-04T02:28:52;23.50;95.90
33382;DHT22;21342;48.786;9.166;2022-08-04T02:31:28;23.60;96.00
33382;DHT22;21342;48.786;9.166;2022-08-04T02:34:05;23.60;95.90
33382;DHT22;21342;48.786;9.166;2022-08-04T02:36:35;23.40;96.40
33382;DHT22;21342;48.786;9.166;2022-08-04T02:39:04;23.30;96.90
33382;DHT22;21342;48.786;9.166;2022-08-04T02:41:33;23.10;97.20
33382;DHT22;21342;48.786;9.166;2022-08-04T02:44:02;23.20;97.30
33382;DHT22;21342;48.786;9.166;2022-08-04T02:46:33;23.20;97.40
33382;DHT22;21342;48.786;9.166;2022-08-04T02:49:02;23.20;97.60
33382;DHT22;21342;48.786;9.166;2022-08-04T02:51:33;23.30;97.90
33382;DHT22;21342;48.786;9.166;2022-08-04T02:54:03;23.40;97.50
33382;DHT22;21342;48.786;9.166;2022-08-04T02:56:32;23.50;97.30
33382;DHT22;21342;48.786;9.166;2022-08-04T02:59:02;23.50;97.50
33382;DHT22;21342;48.786;9.166;2022-08-04T03:01:31;23.30;97.80
33382;DHT22;21342;48.786;9.166;2022-08-04T03:04:11;23.30;98.00
33382;DHT22;21342;48.786;9.166;2022-08-04T03:16:02;23.30;98.20
33382;DHT22;21342;48.786;9.166;2022-08-04T03:25:23;23.30;98.40
33382;DHT22;21342;48.786;9.166;2022-08-04T03:31:21;23.40;98.40
33382;DHT22;21342;48.786;9.166;2022-08-04T03:34:02;23.10;99.00
33382;DHT22;21342;48.786;9.166;2022-08-04T03:36:54;23.10;99.20
33382;DHT22;21342;48.786;9.166;2022-08-04T03:39:50;22.90;99.60
33382;DHT22;21342;48.786;9.166;2022-08-04T03:49:03;22.90;99.90
33382;DHT22;21342;48.786;9.166;2022-08-04T03:51:41;23.00;99.90
33382;DHT22;21342;48.786;9.166;2022-08-04T03:57:51;23.20;99.90
33382;DHT22;21342;48.786;9.166;2022-08-04T04:00:25;23.20;99.90
33382;DHT22;21342;48.786;9.166;2022-08-04T04:03:09;23.20;99.90
33382;DHT22;21342;48.786;9.166;2022-08-04T04:06:13;23.00;99.90
33382;DHT22;21342;48.786;9.166;2022-08-04T04:12:12;22.70;99.90
33382;DHT22;21342;48.786;9.166;2022-08-04T04:15:02;22.80;99.90
33382;DHT22;21342;48.786;9.166;2022-08-04T04:17:56;22.70;99.90
33382;DHT22;21342;48.786;9.166;2022-08-04T04:20:50;22.60;99.90
33382;DHT22;21342;48.786;9.166;2022-08-04T04:23:30;22.60;99.90
33382;DHT22;21342;48.786;9.166;2022-08-04T04:26:06;22.70;99.90
33382;DHT22;21342;48.786;9.166;2022-08-04T04:29:01;22.70;99.90
33382;DHT22;21342;48.786;9.166;2022-08-04T04:31:46;22.60;99.90
33382;DHT22;21342;48.786;9.166;2022-08-04T04:34:28;22.70;99.90
33382;DHT22;21342;48.786;9.166;2022-08-04T04:37:11;22.80;99.90
33382;DHT22;21342;48.786;9.166;2022-08-04T04:39:58;22.80;99.90
33382;DHT22;21342;48.786;9.166;2022-08-04T04:42:41;22.90;99.90
33382;DHT22;21342;48.786;9.166;2022-08-04T04:45:21;23.00;99.90
33382;DHT22;21342;48.786;9.166;2022-08-04T04:47:56;23.10;99.90
33382;DHT22;21342;48.786;9.166;2022-08-04T04:50:34;23.10;99.90
33382;DHT22;21342;48.786;9.166;2022-08-04T04:53:10;22.90;99.90
33382;DHT22;21342;48.786;9.166;2022-08-04T04:55:44;22.90;99.90
33382;DHT22;21342;48.786;9.166;2022-08-04T04:58:16;22.80;99.90
33382;DHT22;21342;48.786;9.166;2022-08-04T05:00:59;22.80;99.90
33382;DHT22;21342;48.786;9.166;2022-08-04T05:03:48;22.90;99.90
33382;DHT22;21342;48.786;9.166;2022-08-04T05:06:31;23.00;99.90
33382;DHT22;21342;48.786;9.166;2022-08-04T05:09:17;23.10;99.90
33382;DHT22;21342;48.786;9.166;2022-08-04T05:14:45;23.10;99.90
33382;DHT22;21342;48.786;9.166;2022-08-04T05:17:19;23.10;99.90
33382;DHT22;21342;48.786;9.166;2022-08-04T05:19:58;23.20;99.90
33382;DHT22;21342;48.786;9.166;2022-08-04T05:22:30;23.20;99.90
33382;DHT22;21342;48.786;9.166;2022-08-04T05:25:03;23.20;99.90
33382;DHT22;21342;48.786;9.166;2022-08-04T05:27:37;23.30;99.90
33382;DHT22;21342;48.786;9.166;2022-08-04T05:30:07;23.40;99.90
33382;DHT22;21342;48.786;9.166;2022-08-04T05:32:42;23.50;99.90
33382;DHT22;21342;48.786;9.166;2022-08-04T05:35:15;23.50;99.90
33382;DHT22;21342;48.786;9.166;2022-08-04T05:37:43;23.60;99.90
33382;DHT22;21342;48.786;9.166;2022-08-04T05:40:14;23.70;99.90
33382;DHT22;21342;48.786;9.166;2022-08-04T05:42:44;23.80;99.90
33382;DHT22;21342;48.786;9.166;2022-08-04T05:45:13;23.90;99.90
33382;DHT22;21342;48.786;9.166;2022-08-04T05:47:40;23.90;99.90
33382;DHT22;21342;48.786;9.166;2022-08-04T05:50:08;24.00;99.90
33382;DHT22;21342;48.786;9.166;2022-08-04T05:52:36;24.00;99.90
33382;DHT22;21342;48.786;9.166;2022-08-04T05:55:06;24.00;99.90
33382;DHT22;21342;48.786;9.166;2022-08-04T05:57:39;24.10;99.90
33382;DHT22;21342;48.786;9.166;2022-08-04T06:00:09;24.20;99.90
33382;DHT22;21342;48.786;9.166;2022-08-04T06:02:37;24.30;99.90
33382;DHT22;21342;48.786;9.166;2022-08-04T06:05:05;24.40;99.90
33382;DHT22;21342;48.786;9.166;2022-08-04T06:07:33;24.50;99.30
33382;DHT22;21342;48.786;9.166;2022-08-04T06:10:00;24.70;99.30
33382;DHT22;21342;48.786;9.166;2022-08-04T06:12:31;24.70;98.90
33382;DHT22;21342;48.786;9.166;2022-08-04T06:15:01;24.80;98.40
33382;DHT22;21342;48.786;9.166;2022-08-04T06:17:32;24.90;98.20
33382;DHT22;21342;48.786;9.166;2022-08-04T06:20:00;25.00;97.70
33382;DHT22;21342;48.786;9.166;2022-08-04T06:22:29;25.10;97.70
33382;DHT22;21342;48.786;9.166;2022-08-04T06:25:00;25.10;97.30
33382;DHT22;21342;48.786;9.166;2022-08-04T06:27:29;25.20;97.30
33382;DHT22;21342;48.786;9.166;2022-08-04T06:29:58;25.30;96.80
33382;DHT22;21342;48.786;9.166;2022-08-04T06:32:27;25.40;96.50
33382;DHT22;21342;48.786;9.166;2022-08-04T06:35:04;25.50;96.90
33382;DHT22;21342;48.786;9.166;2022-08-04T06:37:33;25.50;96.30
33382;DHT22;21342;48.786;9.166;2022-08-04T06:40:03;25.60;96.00
33382;DHT22;21342;48.786;9.166;2022-08-04T06:42:31;25.70;95.70
33382;DHT22;21342;48.786;9.166;2022-08-04T06:44:59;25.70;96.00
33382;DHT22;21342;48.786;9.166;2022-08-04T06:47:29;25.80;95.20
33382;DHT22;21342;48.786;9.166;2022-08-04T06:49:57;25.80;95.50
33382;DHT22;21342;48.786;9.166;2022-08-04T06:52:27;25.90;95.70
33382;DHT22;21342;48.786;9.166;2022-08-04T06:54:54;26.00;95.20
33382;DHT22;21342;48.786;9.166;2022-08-04T06:57:23;26.10;94.80
33382;DHT22;21342;48.786;9.166;2022-08-04T06:59:55;26.10;95.00
33382;DHT22;21342;48.786;9.166;2022-08-04T07:02:26;26.20;94.60
33382;DHT22;21342;48.786;9.166;2022-08-04T07:04:55;26.30;94.10
33382;DHT22;21342;48.786;9.166;2022-08-04T07:07:23;26.40;94.30
33382;DHT22;21342;48.786;9.166;2022-08-04T07:09:52;26.50;93.60
33382;DHT22;21342;48.786;9.166;2022-08-04T07:12:20;26.50;94.10
33382;DHT22;21342;48.786;9.166;2022-08-04T07:14:50;26.50;93.40
33382;DHT22;21342;48.786;9.166;2022-08-04T07:17:20;26.60;93.50
33382;DHT22;21342;48.786;9.166;2022-08-04T07:19:48;26.70;93.10
33382;DHT22;21342;48.786;9.166;2022-08-04T07:22:15;26.70;92.90
33382;DHT22;21342;48.786;9.166;2022-08-04T07:24:43;26.70;92.80
33382;DHT22;21342;48.786;9.166;2022-08-04T07:27:12;26.80;93.00
33382;DHT22;21342;48.786;9.166;2022-08-04T07:29:39;26.90;92.60
33382;DHT22;21342;48.786;9.166;2022-08-04T07:32:08;27.00;92.70
33382;DHT22;21342;48.786;9.166;2022-08-04T07:34:36;27.00;92.50
33382;DHT22;21342;48.786;9.166;2022-08-04T07:37:04;27.10;92.60
33382;DHT22;21342;48.786;9.166;2022-08-04T07:39:31;27.10;92.40
33382;DHT22;21342;48.786;9.166;2022-08-04T07:42:02;27.20;92.10
33382;DHT22;21342;48.786;9.166;2022-08-04T07:44:32;27.20;92.20
33382;DHT22;21342;48.786;9.166;2022-08-04T07:47:00;27.30;91.80
33382;DHT22;21342;48.786;9.166;2022-08-04T07:49:27;27.50;91.70
33382;DHT22;21342;48.786;9.166;2022-08-04T07:51:55;28.00;91.30
33382;DHT22;21342;48.786;9.166;2022-08-04T07:54:22;28.90;90.40
33382;DHT22;21342;48.786;9.166;2022-08-04T07:59:18;30.50;84.60
33382;DHT22;21342;48.786;9.166;2022-08-04T08:01:47;31.10;83.50
33382;DHT22;21342;48.786;9.166;2022-08-04T08:04:15;31.90;80.50
33382;DHT22;21342;48.786;9.166;2022-08-04T08:06:42;32.50;79.80
33382;DHT22;21342;48.786;9.166;2022-08-04T08:09:11;32.90;77.40
33382;DHT22;21342;48.786;9.166;2022-08-04T08:11:39;33.10;76.30
33382;DHT22;21342;48.786;9.166;2022-08-04T08:14:07;33.30;75.60
33382;DHT22;21342;48.786;9.166;2022-08-04T08:16:34;33.20;73.60
33382;DHT22;21342;48.786;9.166;2022-08-04T08:22:59;34.00;71.40
33382;DHT22;21342;48.786;9.166;2022-08-04T08:25:52;34.30;68.00
33382;DHT22;21342;48.786;9.166;2022-08-04T08:28:19;34.40;67.20
33382;DHT22;21342;48.786;9.166;2022-08-04T08:30:46;34.70;67.20
33382;DHT22;21342;48.786;9.166;2022-08-04T08:33:14;34.30;68.00
33382;DHT22;21342;48.786;9.166;2022-08-04T08:35:49;34.70;67.20
33382;DHT22;21342;48.786;9.166;2022-08-04T08:38:24;35.20;63.90
33382;DHT22;21342;48.786;9.166;2022-08-04T08:40:57;35.30;62.50
33382;DHT22;21342;48.786;9.166;2022-08-04T08:43:49;35.40;60.50
33382;DHT22;21342;48.786;9.166;2022-08-04T08:49:47;35.40;60.40
33382;DHT22;21342;48.786;9.166;2022-08-04T08:52:32;36.30;59.30
33382;DHT22;21342;48.786;9.166;2022-08-04T08:55:16;35.90;58.40
33382;DHT22;21342;48.786;9.166;2022-08-04T08:58:01;36.00;58.50
33382;DHT22;21342;48.786;9.166;2022-08-04T09:00:41;36.20;58.10
33382;DHT22;21342;48.786;9.166;2022-08-04T09:06:31;36.60;57.60
33382;DHT22;21342;48.786;9.166;2022-08-04T09:09:35;37.20;72.90
33382;DHT22;21342;48.786;9.166;2022-08-04T09:12:12;37.20;57.20
33382;DHT22;21342;48.786;9.166;2022-08-04T09:14:48;37.00;56.70
33382;DHT22;21342;48.786;9.166;2022-08-04T09:17:22;36.60;56.60
33382;DHT22;21342;48.786;9.166;2022-08-04T09:19:55;37.20;56.30
33382;DHT22;21342;48.786;9.166;2022-08-04T09:22:28;37.40;56.40
33382;DHT22;21342;48.786;9.166;2022-08-04T09:25:02;37.70;56.00
33382;DHT22;21342;48.786;9.166;2022-08-04T09:27:42;37.50;55.20
33382;DHT22;21342;48.786;9.166;2022-08-04T09:30:11;38.20;55.10
33382;DHT22;21342;48.786;9.166;2022-08-04T09:32:43;38.50;54.50
33382;DHT22;21342;48.786;9.166;2022-08-04T09:35:18;37.80;54.00
33382;DHT22;21342;48.786;9.166;2022-08-04T09:37:59;37.60;55.00
33382;DHT22;21342;48.786;9.166;2022-08-04T09:40:33;37.70;54.40
33382;DHT22;21342;48.786;9.166;2022-08-04T09:43:11;37.70;54.40
33382;DHT22;21342;48.786;9.166;2022-08-04T09:45:49;38.50;52.70
33382;DHT22;21342;48.786;9.166;2022-08-04T09:48:24;38.30;52.50
33382;DHT22;21342;48.786;9.166;2022-08-04T09:50:57;38.30;52.50
33382;DHT22;21342;48.786;9.166;2022-08-04T09:53:47;38.90;51.50
33382;DHT22;21342;48.786;9.166;2022-08-04T09:56:22;39.10;51.60
33382;DHT22;21342;48.786;9.166;2022-08-04T09:58:59;39.10;51.80
33382;DHT22;21342;48.786;9.166;2022-08-04T10:01:29;39.20;51.60
33382;DHT22;21342;48.786;9.166;2022-08-04T10:04:00;38.60;51.30
33382;DHT22;21342;48.786;9.166;2022-08-04T10:06:42;37.90;51.50
33382;DHT22;21342;48.786;9.166;2022-08-04T10:09:32;38.80;51.50
33382;DHT22;21342;48.786;9.166;2022-08-04T10:12:11;38.30;49.60
33382;DHT22;21342;48.786;9.166;2022-08-04T10:14:50;38.10;49.50
33382;DHT22;21342;48.786;9.166;2022-08-04T10:17:30;38.20;49.30
33382;DHT22;21342;48.786;9.166;2022-08-04T10:20:07;38.60;49.40
33382;DHT22;21342;48.786;9.166;2022-08-04T10:22:38;38.60;49.40
33382;DHT22;21342;48.786;9.166;2022-08-04T10:25:17;38.80;48.50
33382;DHT22;21342;48.786;9.166;2022-08-04T10:27:50;38.80;48.60
33382;DHT22;21342;48.786;9.166;2022-08-04T10:30:20;39.30;49.40
33382;DHT22;21342;48.786;9.166;2022-08-04T10:32:56;39.10;49.30
33382;DHT22;21342;48.786;9.166;2022-08-04T10:35:26;39.10;49.20
33382;DHT22;21342;48.786;9.166;2022-08-04T10:38:03;39.50;49.10
33382;DHT22;21342;48.786;9.166;2022-08-04T10:40:35;39.10;48.70
33382;DHT22;21342;48.786;9.166;2022-08-04T10:43:20;39.30;48.60
33382;DHT22;21342;48.786;9.166;2022-08-04T10:45:57;39.30;48.70
33382;DHT22;21342;48.786;9.166;2022-08-04T10:48:33;39.20;47.30
33382;DHT22;21342;48.786;9.166;2022-08-04T10:51:15;39.80;47.60
33382;DHT22;21342;48.786;9.166;2022-08-04T10:53:46;40.00;47.90
33382;DHT22;21342;48.786;9.166;2022-08-04T10:56:21;40.30;47.70
33382;DHT22;21342;48.786;9.166;2022-08-04T10:58:53;39.30;47.50
33382;DHT22;21342;48.786;9.166;2022-08-04T11:01:26;39.50;47.60
33382;DHT22;21342;48.786;9.166;2022-08-04T11:03:57;39.50;47.60
33382;DHT22;21342;48.786;9.166;2022-08-04T11:06:26;39.00;46.50
33382;DHT22;21342;48.786;9.166;2022-08-04T11:08:55;38.90;47.30
33382;DHT22;21342;48.786;9.166;2022-08-04T11:11:29;39.30;46.90
33382;DHT22;21342;48.786;9.166;2022-08-04T11:14:01;39.20;47.00
33382;DHT22;21342;48.786;9.166;2022-08-04T11:16:35;39.20;46.60
33382;DHT22;21342;48.786;9.166;2022-08-04T11:19:15;39.20;46.60
33382;DHT22;21342;48.786;9.166;2022-08-04T11:21:48;39.00;46.50
33382;DHT22;21342;48.786;9.166;2022-08-04T11:24:30;39.80;46.20
33382;DHT22;21342;48.786;9.166;2022-08-04T11:27:04;40.00;46.00
33382;DHT22;21342;48.786;9.166;2022-08-04T11:29:39;39.60;46.10
33382;DHT22;21342;48.786;9.166;2022-08-04T11:32:19;38.90;46.50
33382;DHT22;21342;48.786;9.166;2022-08-04T11:34:48;38.50;46.60
33382;DHT22;21342;48.786;9.166;2022-08-04T11:37:21;38.20;46.90
33382;DHT22;21342;48.786;9.166;2022-08-04T11:39:52;38.40;47.10
33382;DHT22;21342;48.786;9.166;2022-08-04T11:42:25;38.30;47.00
33382;DHT22;21342;48.786;9.166;2022-08-04T11:44:59;37.70;46.90
33382;DHT22;21342;48.786;9.166;2022-08-04T11:47:35;37.80;46.10
33382;DHT22;21342;48.786;9.166;2022-08-04T11:50:10;38.40;47.00
33382;DHT22;21342;48.786;9.166;2022-08-04T11:52:40;38.30;46.90
33382;DHT22;21342;48.786;9.166;2022-08-04T11:55:12;38.60;46.30
33382;DHT22;21342;48.786;9.166;2022-08-04T11:57:40;38.90;49.30
33382;DHT22;21342;48.786;9.166;2022-08-04T12:00:11;39.00;47.20
33382;DHT22;21342;48.786;9.166;2022-08-04T12:03:11;38.20;48.60
33382;DHT22;21342;48.786;9.166;2022-08-04T12:05:48;38.40;47.60
33382;DHT22;21342;48.786;9.166;2022-08-04T12:08:39;38.60;47.10
33382;DHT22;21342;48.786;9.166;2022-08-04T12:11:15;38.20;47.80
33382;DHT22;21342;48.786;9.166;2022-08-04T12:13:53;37.80;46.80
33382;DHT22;21342;48.786;9.166;2022-08-04T12:16:26;37.50;46.90
33382;DHT22;21342;48.786;9.166;2022-08-04T12:18:58;36.70;46.80
33382;DHT22;21342;48.786;9.166;2022-08-04T12:21:32;36.70;47.40
33382;DHT22;21342;48.786;9.166;2022-08-04T12:24:04;36.70;47.80
33382;DHT22;21342;48.786;9.166;2022-08-04T12:26:35;36.20;47.50
33382;DHT22;21342;48.786;9.166;2022-08-04T12:29:05;36.50;47.40
33382;DHT22;21342;48.786;9.166;2022-08-04T12:31:39;37.00;47.40
33382;DHT22;21342;48.786;9.166;2022-08-04T12:34:13;37.30;46.90
33382;DHT22;21342;48.786;9.166;2022-08-04T12:36:46;37.20;47.20
33382;DHT22;21342;48.786;9.166;2022-08-04T12:39:19;37.40;46.80
33382;DHT22;21342;48.786;9.166;2022-08-04T12:41:56;37.50;46.90
33382;DHT22;21342;48.786;9.166;2022-08-04T12:44:30;37.60;46.40
33382;DHT22;21342;48.786;9.166;2022-08-04T12:47:00;37.50;46.40
33382;DHT22;21342;48.786;9.166;2022-08-04T12:49:31;37.70;46.20
33382;DHT22;21342;48.786;9.166;2022-08-04T12:52:04;37.40;46.20
33382;DHT22;21342;48.786;9.166;2022-08-04T12:54:34;37.40;46.20
33382;DHT22;21342;48.786;9.166;2022-08-04T12:57:03;37.60;46.30
33382;DHT22;21342;48.786;9.166;2022-08-04T12:59:37;38.00;45.40
33382;DHT22;21342;48.786;9.166;2022-08-04T13:02:06;38.30;46.20
33382;DHT22;21342;48.786;9.166;2022-08-04T13:04:41;37.70;46.10
33382;DHT22;21342;48.786;9.166;2022-08-04T13:07:14;37.50;45.70
33382;DHT22;21342;48.786;9.166;2022-08-04T13:09:42;37.40;46.20
33382;DHT22;21342;48.786;9.166;2022-08-04T13:12:12;37.60;46.00
33382;DHT22;21342;48.786;9.166;2022-08-04T13:14:41;37.80;45.30
33382;DHT22;21342;48.786;9.166;2022-08-04T13:17:10;38.30;45.60
33382;DHT22;21342;48.786;9.166;2022-08-04T13:19:44;38.10;45.90
33382;DHT22;21342;48.786;9.166;2022-08-04T13:22:12;38.10;45.00
33382;DHT22;21342;48.786;9.166;2022-08-04T13:24:41;38.10;45.40
33382;DHT22;21342;48.786;9.166;2022-08-04T13:27:11;38.50;44.90
33382;DHT22;21342;48.786;9.166;2022-08-04T13:29:40;38.70;44.80
33382;DHT22;21342;48.786;9.166;2022-08-04T13:32:09;38.60;44.50
33382;DHT22;21342;48.786;9.166;2022-08-04T13:34:41;38.00;45.30
33382;DHT22;21342;48.786;9.166;2022-08-04T13:37:09;37.30;45.20
33382;DHT22;21342;48.786;9.166;2022-08-04T13:39:37;36.70;45.30
33382;DHT22;21342;48.786;9.166;2022-08-04T13:42:11;36.70;46.20
33382;DHT22;21342;48.786;9.166;2022-08-04T13:44:42;36.70;45.30
33382;DHT22;21342;48.786;9.166;2022-08-04T13:47:14;36.70;45.50
33382;DHT22;21342;48.786;9.166;2022-08-04T13:50:14;37.20;45.90
33382;DHT22;21342;48.786;9.166;2022-08-04T13:52:43;36.60;45.60
33382;DHT22;21342;48.786;9.166;2022-08-04T13:55:19;36.80;45.70
33382;DHT22;21342;48.786;9.166;2022-08-04T13:57:49;37.10;45.30
33382;DHT22;21342;48.786;9.166;2022-08-04T14:00:18;36.80;45.70
33382;DHT22;21342;48.786;9.166;2022-08-04T14:02:49;37.20;45.10
33382;DHT22;21342;48.786;9.166;2022-08-04T14:05:26;36.90;45.40
33382;DHT22;21342;48.786;9.166;2022-08-04T14:07:57;36.90;45.60
33382;DHT22;21342;48.786;9.166;2022-08-04T14:10:26;37.20;45.90
33382;DHT22;21342;48.786;9.166;2022-08-04T14:12:54;37.20;45.40
33382;DHT22;21342;48.786;9.166;2022-08-04T14:15:34;37.30;45.10
33382;DHT22;21342;48.786;9.166;2022-08-04T14:18:21;37.10;45.10
33382;DHT22;21342;48.786;9.166;2022-08-04T14:21:00;37.30;45.20
33382;DHT22;21342;48.786;9.166;2022-08-04T14:23:28;36.60;45.70
33382;DHT22;21342;48.786;9.166;2022-08-04T14:26:19;36.20;46.30
33382;DHT22;21342;48.786;9.166;2022-08-04T14:28:47;36.20;45.80
33382;DHT22;21342;48.786;9.166;2022-08-04T14:31:16;36.50;46.00
33382;DHT22;21342;48.786;9.166;2022-08-04T14:33:45;36.70;45.50
33382;DHT22;21342;48.786;9.166;2022-08-04T14:36:14;36.60;45.60
33382;DHT22;21342;48.786;9.166;2022-08-04T14:38:52;36.20;46.10
33382;DHT22;21342;48.786;9.166;2022-08-04T14:41:22;36.10;46.10
33382;DHT22;21342;48.786;9.166;2022-08-04T14:43:52;36.10;45.80
33382;DHT22;21342;48.786;9.166;2022-08-04T14:46:20;36.10;46.30
33382;DHT22;21342;48.786;9.166;2022-08-04T14:49:07;36.10;46.00
33382;DHT22;21342;48.786;9.166;2022-08-04T14:51:39;36.10;45.50
33382;DHT22;21342;48.786;9.166;2022-08-04T14:54:07;36.20;45.30
33382;DHT22;21342;48.786;9.166;2022-08-04T14:56:35;36.30;46.30
33382;DHT22;21342;48.786;9.166;2022-08-04T14:59:04;35.80;46.40
33382;DHT22;21342;48.786;9.166;2022-08-04T15:01:34;35.50;46.70
33382;DHT22;21342;48.786;9.166;2022-08-04T15:04:01;35.20;46.50
33382;DHT22;21342;48.786;9.166;2022-08-04T15:06:30;35.40;46.60
33382;DHT22;21342;48.786;9.166;2022-08-04T15:09:00;35.50;46.40
33382;DHT22;21342;48.786;9.166;2022-08-04T15:11:28;35.90;46.40
33382;DHT22;21342;48.786;9.166;2022-08-04T15:13:56;36.10;46.30
33382;DHT22;21342;48.786;9.166;2022-08-04T15:16:25;35.90;46.30
33382;DHT22;21342;48.786;9.166;2022-08-04T15:18:53;36.00;46.10
33382;DHT22;21342;48.786;9.166;2022-08-04T15:21:21;35.80;46.40
33382;DHT22;21342;48.786;9.166;2022-08-04T15:23:48;36.00;46.50
33382;DHT22;21342;48.786;9.166;2022-08-04T15:26:21;36.20;46.90
33382;DHT22;21342;48.786;9.166;2022-08-04T15:28:52;36.10;46.30
33382;DHT22;21342;48.786;9.166;2022-08-04T15:31:21;36.40;47.10
33382;DHT22;21342;48.786;9.166;2022-08-04T15:33:49;36.50;46.00
33382;DHT22;21342;48.786;9.166;2022-08-04T15:36:21;36.40;46.00
33382;DHT22;21342;48.786;9.166;2022-08-04T15:39:00;35.80;46.20
33382;DHT22;21342;48.786;9.166;2022-08-04T15:41:36;35.80;46.20
33382;DHT22;21342;48.786;9.166;2022-08-04T15:44:29;36.00;46.30
33382;DHT22;21342;48.786;9.166;2022-08-04T15:47:10;35.60;46.80
33382;DHT22;21342;48.786;9.166;2022-08-04T15:49:38;35.20;46.40
33382;DHT22;21342;48.786;9.166;2022-08-04T15:52:08;34.90;47.10
33382;DHT22;21342;48.786;9.166;2022-08-04T15:54:36;34.90;46.50
33382;DHT22;21342;48.786;9.166;2022-08-04T15:57:05;35.30;46.90
33382;DHT22;21342;48.786;9.166;2022-08-04T15:59:56;35.60;46.90
33382;DHT22;21342;48.786;9.166;2022-08-04T16:02:40;35.80;46.60
33382;DHT22;21342;48.786;9.166;2022-08-04T16:05:27;35.50;46.80
33382;DHT22;21342;48.786;9.166;2022-08-04T16:07:56;35.30;46.40
33382;DHT22;21342;48.786;9.166;2022-08-04T16:10:39;35.20;46.60
33382;DHT22;21342;48.786;9.166;2022-08-04T16:13:09;35.40;46.40
33382;DHT22;21342;48.786;9.166;2022-08-04T16:15:47;35.20;47.00
33382;DHT22;21342;48.786;9.166;2022-08-04T16:21:03;35.40;46.60
33382;DHT22;21342;48.786;9.166;2022-08-04T16:23:46;35.30;47.00
33382;DHT22;21342;48.786;9.166;2022-08-04T16:26:50;34.70;46.70
33382;DHT22;21342;48.786;9.166;2022-08-04T16:29:43;34.70;47.30
33382;DHT22;21342;48.786;9.166;2022-08-04T16:32:19;34.50;47.20
33382;DHT22;21342;48.786;9.166;2022-08-04T16:34:51;34.50;47.40
33382;DHT22;21342;48.786;9.166;2022-08-04T16:37:21;34.20;47.60
33382;DHT22;21342;48.786;9.166;2022-08-04T16:39:49;34.50;47.20
33382;DHT22;21342;48.786;9.166;2022-08-04T16:42:30;34.50;47.10
33382;DHT22;21342;48.786;9.166;2022-08-04T16:45:01;34.50;47.20
33382;DHT22;21342;48.786;9.166;2022-08-04T16:47:59;34.80;47.10
33382;DHT22;21342;48.786;9.166;2022-08-04T16:50:29;34.90;47.00
33382;DHT22;21342;48.786;9.166;2022-08-04T16:52:56;35.00;47.30
33382;DHT22;21342;48.786;9.166;2022-08-04T16:55:26;35.00;46.90
33382;DHT22;21342;48.786;9.166;2022-08-04T16:57:55;35.10;46.60
33382;DHT22;21342;48.786;9.166;2022-08-04T17:00:32;35.10;46.70
33382;DHT22;21342;48.786;9.166;2022-08-04T17:03:01;34.90;47.40
33382;DHT22;21342;48.786;9.166;2022-08-04T17:05:28;34.70;47.60
33382;DHT22;21342;48.786;9.166;2022-08-04T17:07:57;34.20;47.70
33382;DHT22;21342;48.786;9.166;2022-08-04T17:10:34;33.80;47.60